This is the latest recevied weather packets stored in our database for station/object K0JSC-13. If no packets are shown the sender has not sent any weather packets the latest 10 day(s).
| Time | Temp. | Humidity | Pressure | Rain* | Wind** | Luminosity | Snow |
|---|---|---|---|---|---|---|---|
| 1777496044 | 15.56° C | 40% | 994 hPa | 0 mm | - | - | - |
| 1777494964 | 15.56° C | 43% | 994.1 hPa | 0 mm | - | - | - |
| 1777494557 | 14.44° C | 45% | 994.3 hPa | 0 mm | - | - | - |
| 1777488978 | 14.44° C | 47% | 995.3 hPa | 0 mm | - | - | - |
| 1777486817 | 13.33° C | 50% | 996.1 hPa | 0 mm | - | - | - |
| 1777481643 | 11.11° C | 59% | 997.7 hPa | 0 mm | - | - | - |
| 1777475883 | 7.78° C | 69% | 998.8 hPa | 0 mm | - | - | - |
| 1777473363 | 7.78° C | 69% | 999.3 hPa | 0 mm | - | - | - |
| 1777472823 | 7.78° C | 70% | 999.4 hPa | 0 mm | - | - | - |
| 1777472283 | 7.78° C | 70% | 999.1 hPa | 0 mm | - | - | - |
| 1777469763 | 6.67° C | 74% | 999.3 hPa | 0 mm | - | - | - |
| 1777466703 | 5.56° C | 75% | 999.3 hPa | 0 mm | - | - | - |
| 1777466164 | 5.56° C | 75% | 999.3 hPa | 0 mm | - | - | - |
| 1777461483 | 6.11° C | 73% | 999 hPa | 0 mm | - | - | - |
| 1777460043 | 6.67° C | 72% | 999.2 hPa | 0 mm | - | - | - |
| 1777454283 | 8.89° C | 61% | 998.8 hPa | 0 mm | - | - | - |
| 1777451223 | 10° C | 57% | 998.7 hPa | 0 mm | - | - | - |
| 1777446677 | 11.11° C | 52% | 998.9 hPa | 0 mm | - | - | - |
| 1777444563 | 11.67° C | 50% | 998.9 hPa | 0 mm | - | - | - |
| 1777443483 | 11.67° C | 50% | 999 hPa | 0 mm | - | - | - |
| 1777442943 | 11.67° C | 50% | 999.1 hPa | 0 mm | - | - | - |
| 1777442404 | 11.67° C | 50% | 999 hPa | 0 mm | - | - | - |
| 1777434843 | 12.22° C | 47% | 998.1 hPa | 0 mm | - | - | - |
| 1777429623 | 13.33° C | 44% | 996.1 hPa | 0 mm | - | - | - |
| 1777428543 | 13.89° C | 43% | 995.5 hPa | 0 mm | - | - | - |
* Rain latest hour (hover to see other rain measurements)
** Current wind speed in m/s (hover to see current wind gust speed)